Time;durP1;ratioP1;P1;durP2;ratioP2;P2;SDS_P1;SDS_P2;PMS_P1;PMS_P2;Temp;Humidity;BMP_temperature;BMP_pressure;BME280_temperature;BME280_humidity;BME280_pressure;Samples;Min_cycle;Max_cycle;Signal;HPM_P1;HPM_P2
2021/10/26 00:01:31;;;;;;;37.58;18.67;;;;;;;11.16;100.00;101814.75;5014949;28;20025;-79
2021/10/26 00:03:56;;;;;;;38.67;19.42;;;;;;;11.13;100.00;101820.81;5015052;28;20040;-80
2021/10/26 00:06:22;;;;;;;34.35;19.42;;;;;;;11.17;100.00;101813.91;5015396;28;20017;-80
2021/10/26 00:08:47;;;;;;;41.17;17.55;;;;;;;11.17;100.00;101816.56;5015591;28;20116;-79
2021/10/26 00:11:13;;;;;;;38.38;18.80;;;;;;;11.17;100.00;101819.19;5017417;28;20026;-79
2021/10/26 00:13:38;;;;;;;33.60;17.77;;;;;;;11.18;100.00;101826.22;5017320;28;20095;-78
2021/10/26 00:16:05;;;;;;;40.58;18.67;;;;;;;11.19;100.00;101828.00;5010338;28;20026;-79
2021/10/26 00:18:30;;;;;;;40.88;18.77;;;;;;;11.20;100.00;101829.81;5013333;28;20037;-78
2021/10/26 00:20:56;;;;;;;38.10;18.38;;;;;;;11.19;100.00;101828.00;5014423;28;20116;-79
2021/10/26 00:23:21;;;;;;;36.38;17.55;;;;;;;11.19;100.00;101825.38;5015735;28;20041;-79
2021/10/26 00:25:46;;;;;;;37.03;19.13;;;;;;;11.17;100.00;101829.72;5012103;28;20510;-78
2021/10/26 00:28:12;;;;;;;46.08;17.48;;;;;;;11.16;100.00;101820.03;5016352;28;20030;-79
2021/10/26 00:30:37;;;;;;;33.58;16.45;;;;;;;11.15;100.00;101824.41;5013829;28;20053;-78
2021/10/26 00:33:02;;;;;;;40.28;16.83;;;;;;;11.12;100.00;101829.56;5013993;28;20125;-78
2021/10/26 00:35:31;;;;;;;36.03;15.95;;;;;;;11.14;100.00;101826.13;5016250;28;20045;-79
2021/10/26 00:38:00;;;;;;;38.30;16.23;;;;;;;11.10;100.00;101826.00;5014272;28;20137;-79
2021/10/26 00:40:26;;;;;;;36.17;15.60;;;;;;;11.08;100.00;101839.13;5011796;28;20173;-78
2021/10/26 00:42:51;;;;;;;33.08;14.65;;;;;;;11.08;100.00;101838.22;5016025;28;20486;-79
2021/10/26 00:45:17;;;;;;;38.85;16.05;;;;;;;11.03;100.00;101837.19;5015546;28;20117;-79
2021/10/26 00:47:42;;;;;;;39.33;16.58;;;;;;;11.00;100.00;101840.66;5014671;28;20029;-78
2021/10/26 00:50:08;;;;;;;37.10;16.65;;;;;;;10.99;100.00;101841.50;5031441;28;20029;-79
2021/10/26 00:52:34;;;;;;;38.88;17.02;;;;;;;10.91;100.00;101849.13;5016453;28;20038;-79
2021/10/26 00:55:00;;;;;;;44.65;16.80;;;;;;;10.89;100.00;101849.94;5014169;28;20034;-78
2021/10/26 00:57:28;;;;;;;38.22;16.83;;;;;;;10.88;100.00;101843.78;5015772;28;20354;-79
2021/10/26 00:59:53;;;;;;;38.08;15.25;;;;;;;10.85;100.00;101848.06;5016560;28;20117;-79
2021/10/26 01:02:19;;;;;;;38.47;15.77;;;;;;;10.82;100.00;101853.22;5014048;28;20096;-79
2021/10/26 01:04:44;;;;;;;34.38;15.23;;;;;;;10.81;100.00;101847.03;5015998;28;20108;-79
2021/10/26 01:07:10;;;;;;;38.97;15.80;;;;;;;10.79;100.00;101848.75;5014417;28;20083;-79
2021/10/26 01:09:35;;;;;;;29.92;14.38;;;;;;;10.76;100.00;101843.41;5013587;28;20033;-79
2021/10/26 01:12:01;;;;;;;29.40;15.07;;;;;;;10.71;100.00;101844.97;5013372;28;20564;-79
2021/10/26 01:14:27;;;;;;;31.98;14.48;;;;;;;10.70;100.00;101849.38;5014211;28;20425;-79
2021/10/26 01:16:52;;;;;;;32.13;14.30;;;;;;;10.70;100.00;101849.38;5015375;28;20030;-79
2021/10/26 01:19:18;;;;;;;31.80;13.95;;;;;;;10.67;100.00;101853.63;5015109;28;20405;-80
2021/10/26 01:21:43;;;;;;;35.58;14.30;;;;;;;10.67;100.00;101853.63;5015695;28;20042;-80
2021/10/26 01:24:08;;;;;;;41.65;14.38;;;;;;;10.63;100.00;101847.34;5015492;28;20025;-78
2021/10/26 01:26:34;;;;;;;36.08;15.18;;;;;;;10.62;100.00;101841.22;5014047;28;20084;-79
2021/10/26 01:29:00;;;;;;;32.20;13.15;;;;;;;10.59;100.00;101856.00;5013952;28;20018;-79
2021/10/26 01:31:26;;;;;;;37.72;14.38;;;;;;;10.55;100.00;101843.59;5012694;28;20018;-79
2021/10/26 01:33:51;;;;;;;38.25;13.88;;;;;;;10.51;100.00;101846.97;5014406;28;20026;-79
2021/10/26 01:36:20;;;;;;;37.80;13.85;;;;;;;10.50;100.00;101843.44;5013404;28;20026;-79
2021/10/26 01:38:46;;;;;;;29.25;12.75;;;;;;;10.46;100.00;101847.72;5029973;28;20026;-79
2021/10/26 01:41:11;;;;;;;35.67;12.75;;;;;;;10.42;100.00;101851.09;5014435;28;20363;-79
2021/10/26 01:43:37;;;;;;;41.28;12.60;;;;;;;10.42;100.00;101851.09;5014633;28;20026;-79
2021/10/26 01:46:03;;;;;;;42.92;13.77;;;;;;;10.39;100.00;101848.34;5014975;28;20127;-80
2021/10/26 01:48:29;;;;;;;39.38;14.15;;;;;;;10.39;100.00;101850.06;5012998;28;20033;-79
2021/10/26 01:50:57;;;;;;;37.53;12.02;;;;;;;10.39;100.00;101853.63;5005447;28;20030;-79
2021/10/26 01:53:22;;;;;;;39.10;14.38;;;;;;;10.37;100.00;101859.66;5014238;28;20034;-80
2021/10/26 01:55:48;;;;;;;37.63;14.77;;;;;;;10.36;100.00;101858.75;5014678;28;20038;-80
2021/10/26 01:58:16;;;;;;;40.60;14.63;;;;;;;10.31;100.00;101849.81;5013278;28;20477;-79
2021/10/26 02:00:41;;;;;;;39.63;14.70;;;;;;;10.28;100.00;101855.84;5011238;28;20038;-79
2021/10/26 02:03:06;;;;;;;39.50;15.48;;;;;;;10.32;100.00;101861.22;5014278;28;20032;-79
2021/10/26 02:05:32;;;;;;;37.47;15.38;;;;;;;10.29;100.00;101862.00;5010740;28;20046;-78
2021/10/26 02:07:57;;;;;;;38.92;14.75;;;;;;;10.28;100.00;101854.94;5013964;28;20030;-78
2021/10/26 02:10:22;;;;;;;35.25;14.95;;;;;;;10.27;100.00;101853.19;5012089;28;20060;-79
2021/10/26 02:12:48;;;;;;;29.95;14.23;;;;;;;10.21;100.00;101859.09;5012708;28;20032;-78
2021/10/26 02:15:13;;;;;;;31.75;14.43;;;;;;;10.23;100.00;101860.06;5013654;28;20036;-78
2021/10/26 02:17:39;;;;;;;38.67;15.85;;;;;;;10.22;100.00;101860.88;5012331;28;20064;-79
2021/10/26 02:20:05;;;;;;;39.33;15.27;;;;;;;10.22;100.00;101857.38;5014228;28;20045;-79
2021/10/26 02:22:30;;;;;;;32.15;14.73;;;;;;;10.19;100.00;101854.66;5013992;28;20110;-79
2021/10/26 02:24:55;;;;;;;45.42;15.55;;;;;;;10.16;100.00;101865.03;5013616;28;20498;-79
2021/10/26 02:27:21;;;;;;;35.83;15.60;;;;;;;10.14;100.00;101865.00;5008841;28;20125;-78
2021/10/26 02:29:47;;;;;;;42.55;16.38;;;;;;;10.16;100.00;101872.94;5013245;28;20068;-79
2021/10/26 02:32:12;;;;;;;42.80;16.52;;;;;;;10.15;100.00;101871.13;5014192;28;20105;-80
2021/10/26 02:34:38;;;;;;;32.58;15.40;;;;;;;10.10;100.00;101863.97;5014032;28;20027;-79
2021/10/26 02:37:03;;;;;;;43.42;16.02;;;;;;;10.11;100.00;101878.03;5013893;28;20033;-80
2021/10/26 02:39:29;;;;;;;40.88;16.90;;;;;;;10.09;100.00;101875.38;5014289;28;20030;-79
2021/10/26 02:41:54;;;;;;;43.88;17.15;;;;;;;10.08;100.00;101878.81;5012527;28;20029;-79
2021/10/26 02:44:20;;;;;;;42.35;15.98;;;;;;;10.06;100.00;101877.88;5013723;28;20084;-77
2021/10/26 02:46:45;;;;;;;42.70;16.90;;;;;;;10.07;100.00;101877.03;5013267;28;20030;-80
2021/10/26 02:49:10;;;;;;;40.42;17.92;;;;;;;10.08;100.00;101881.47;5014557;28;20478;-79
2021/10/26 02:51:36;;;;;;;45.70;16.58;;;;;;;10.09;100.00;101888.50;5012090;28;20026;-79
2021/10/26 02:54:03;;;;;;;35.45;16.20;;;;;;;10.07;100.00;101884.03;5016035;28;20026;-79
2021/10/26 02:56:28;;;;;;;47.80;17.65;;;;;;;10.03;100.00;101884.78;5013524;28;20389;-78
2021/10/26 02:58:54;;;;;;;43.58;16.58;;;;;;;10.00;100.00;101888.19;5011337;28;20109;-78
2021/10/26 03:01:19;;;;;;;38.15;16.92;;;;;;;9.94;100.00;101886.22;5014135;28;20075;-78
2021/10/26 03:03:44;;;;;;;44.47;16.90;;;;;;;9.94;100.00;101885.31;5015959;28;20029;-78
2021/10/26 03:06:10;;;;;;;39.38;17.00;;;;;;;9.90;100.00;101876.44;5017215;28;20072;-78
2021/10/26 03:08:35;;;;;;;44.83;17.13;;;;;;;9.90;100.00;101878.16;5017588;28;20053;-78
2021/10/26 03:11:01;;;;;;;41.88;17.98;;;;;;;9.88;100.00;101875.47;5016474;28;20017;-80
2021/10/26 03:13:26;;;;;;;40.63;17.55;;;;;;;9.86;100.00;101869.28;5016417;28;20030;-78
2021/10/26 03:15:51;;;;;;;50.42;17.00;;;;;;;9.83;100.00;101869.16;5017688;28;20474;-79
2021/10/26 03:18:17;;;;;;;48.53;16.30;;;;;;;9.82;100.00;101877.00;5017938;28;20044;-79
2021/10/26 03:20:43;;;;;;;39.92;16.17;;;;;;;9.77;100.00;101868.94;5032858;28;20030;-79
2021/10/26 03:23:09;;;;;;;46.13;15.55;;;;;;;9.74;100.00;101869.72;5016726;28;20396;-79
2021/10/26 03:25:35;;;;;;;49.00;15.57;;;;;;;9.75;100.00;101873.25;5016550;28;20041;-78
2021/10/26 03:28:00;;;;;;;39.80;15.52;;;;;;;9.72;100.00;101873.13;5016714;28;20034;-79
2021/10/26 03:30:26;;;;;;;41.80;15.73;;;;;;;9.71;100.00;101872.25;5017004;28;20037;-79
2021/10/26 03:32:52;;;;;;;37.08;14.10;;;;;;;9.70;100.00;101870.47;5014049;28;20421;-78
2021/10/26 03:35:18;;;;;;;34.00;13.98;;;;;;;9.70;100.00;101874.81;5018018;28;20080;-78
2021/10/26 03:37:44;;;;;;;42.00;14.23;;;;;;;9.70;100.00;101872.19;5014890;28;20452;-78
2021/10/26 03:40:11;;;;;;;33.38;14.70;;;;;;;9.72;100.00;101879.28;5017232;28;20038;-78
2021/10/26 03:42:37;;;;;;;43.35;14.93;;;;;;;9.69;100.00;101878.28;5013655;28;20034;-78
2021/10/26 03:45:04;;;;;;;35.47;15.27;;;;;;;9.64;100.00;101875.47;5008578;28;20045;-78
2021/10/26 03:47:29;;;;;;;43.95;14.07;;;;;;;9.62;100.00;101882.44;5015002;28;20087;-78
2021/10/26 03:49:54;;;;;;;44.83;15.40;;;;;;;9.57;100.00;101881.34;5016476;28;20041;-78
2021/10/26 03:52:20;;;;;;;46.17;14.48;;;;;;;9.53;100.00;101880.34;5017572;28;20470;-80
2021/10/26 03:54:45;;;;;;;36.92;14.35;;;;;;;9.54;100.00;101889.13;5019145;28;20470;-79
2021/10/26 03:57:12;;;;;;;36.80;14.93;;;;;;;9.52;100.00;101891.69;5014827;28;20504;-79
2021/10/26 03:59:39;;;;;;;42.15;14.52;;;;;;;9.50;100.00;101897.72;5023256;28;20052;-79
2021/10/26 04:02:11;;;;;;;50.80;15.20;;;;;;;9.47;100.00;101893.25;5018771;28;20037;-80
2021/10/26 04:04:37;;;;;;;44.15;13.55;;;;;;;9.46;100.00;101899.34;5016310;28;20045;-79
2021/10/26 04:07:05;;;;;;;34.22;14.18;;;;;;;9.46;100.00;101904.59;5014527;28;20030;-78
2021/10/26 04:09:43;;;;;;;34.05;12.50;;;;;;;9.43;100.00;101904.50;5013558;28;20478;-79
2021/10/26 04:14:43;;;;;;;45.35;13.15;;;;;;;9.45;100.00;101906.34;5013037;28;20048;-78
2021/10/26 04:17:09;;;;;;;41.70;13.65;;;;;;;9.43;100.00;101908.00;5014947;28;20022;-78
2021/10/26 04:19:34;;;;;;;34.03;13.75;;;;;;;9.43;100.00;101905.38;5015962;28;20052;-79
2021/10/26 04:22:00;;;;;;;29.67;12.85;;;;;;;9.44;100.00;101907.16;5015543;28;20049;-80
2021/10/26 04:24:25;;;;;;;49.38;13.77;;;;;;;9.49;100.00;101906.44;5018059;28;20075;-79
2021/10/26 04:26:50;;;;;;;44.63;14.70;;;;;;;9.56;100.00;101908.47;5028305;28;20108;-78
2021/10/26 04:29:16;;;;;;;33.85;13.82;;;;;;;9.58;100.00;101898.91;5021460;28;20029;-79
2021/10/26 04:31:41;;;;;;;45.63;15.20;;;;;;;9.62;100.00;101909.59;5020271;28;20492;-79
2021/10/26 04:34:07;;;;;;;38.95;13.60;;;;;;;9.62;100.00;101908.69;5017945;28;20076;-80
2021/10/26 04:36:32;;;;;;;38.17;14.45;;;;;;;9.63;100.00;101915.75;5016422;28;20439;-80
2021/10/26 04:38:57;;;;;;;44.92;14.73;;;;;;;9.62;100.00;101925.34;5017879;28;20116;-79
2021/10/26 04:41:23;;;;;;;41.72;14.18;;;;;;;9.62;100.00;101920.09;5015888;28;20062;-78
2021/10/26 04:43:49;;;;;;;50.08;14.35;;;;;;;9.64;100.00;101911.38;5015782;28;20030;-79
2021/10/26 04:46:14;;;;;;;41.55;15.20;;;;;;;9.69;100.00;101915.97;5014919;28;20059;-79
2021/10/26 04:48:40;;;;;;;42.65;14.82;;;;;;;9.69;100.00;101915.09;5013823;28;20026;-79
2021/10/26 04:51:05;;;;;;;39.15;14.70;;;;;;;9.69;100.00;101915.97;5022634;28;20475;-79
2021/10/26 04:53:30;;;;;;;46.33;16.08;;;;;;;9.66;100.00;101915.88;5019697;28;20038;-79
2021/10/26 04:55:56;;;;;;;36.88;15.07;;;;;;;9.70;100.00;101922.09;5014145;28;20428;-78
2021/10/26 04:58:21;;;;;;;44.63;15.70;;;;;;;9.68;100.00;101932.56;5014024;28;20026;-80
2021/10/26 05:00:47;;;;;;;50.75;16.25;;;;;;;9.68;100.00;101929.94;5013346;28;20034;-78
2021/10/26 05:03:12;;;;;;;42.83;15.48;;;;;;;9.74;100.00;101930.19;5011880;28;20034;-78
2021/10/26 05:05:38;;;;;;;49.40;16.65;;;;;;;9.70;100.00;101936.16;5013791;28;20038;-79
2021/10/26 05:08:03;;;;;;;43.95;15.65;;;;;;;9.72;100.00;101941.47;5011414;28;20063;-79
2021/10/26 05:10:29;;;;;;;44.22;16.73;;;;;;;9.71;100.00;101943.22;5013861;28;20072;-79
2021/10/26 05:12:54;;;;;;;41.17;16.83;;;;;;;9.70;100.00;101937.88;5013727;28;20486;-79
2021/10/26 05:15:20;;;;;;;44.47;16.48;;;;;;;9.66;100.00;101931.63;5012722;28;20025;-76
2021/10/26 05:17:46;;;;;;;44.90;16.35;;;;;;;9.68;100.00;101932.56;5014360;28;20038;-78
2021/10/26 05:20:14;;;;;;;43.95;17.90;;;;;;;9.62;100.00;101940.25;5013571;28;20080;-77
2021/10/26 05:22:39;;;;;;;53.85;17.10;;;;;;;9.62;100.00;101950.75;5012821;28;20485;-78
2021/10/26 05:25:04;;;;;;;50.78;17.52;;;;;;;9.58;100.00;101948.84;5013667;28;20110;-73
2021/10/26 05:27:36;;;;;;;57.47;17.40;;;;;;;9.55;100.00;101952.25;5014168;28;20046;-75
2021/10/26 05:30:01;;;;;;;43.63;17.70;;;;;;;9.51;100.00;101952.97;5007019;28;20026;-76
2021/10/26 05:32:27;;;;;;;48.75;18.77;;;;;;;9.49;100.00;101964.25;5014255;28;20160;-76
2021/10/26 05:34:52;;;;;;;49.15;17.60;;;;;;;9.50;100.00;101961.69;5013981;28;20080;-77
2021/10/26 05:37:18;;;;;;;49.47;17.23;;;;;;;9.49;100.00;101959.00;5012626;28;20057;-77
2021/10/26 05:39:44;;;;;;;44.72;17.60;;;;;;;9.48;100.00;101967.69;5012823;28;20029;-76
2021/10/26 05:42:09;;;;;;;48.53;17.23;;;;;;;9.49;100.00;101970.38;5025469;28;20024;-77
2021/10/26 05:44:35;;;;;;;59.15;19.20;;;;;;;9.45;100.00;101969.41;5012883;28;20080;-78
2021/10/26 05:47:00;;;;;;;48.38;18.08;;;;;;;9.40;100.00;101972.66;5012049;28;20029;-77
2021/10/26 05:49:25;;;;;;;40.90;17.48;;;;;;;9.38;100.00;101975.22;5017189;28;20087;-77
2021/10/26 05:51:51;;;;;;;46.97;18.33;;;;;;;9.38;100.00;101976.97;5009233;28;20029;-77
2021/10/26 05:54:17;;;;;;;41.53;17.00;;;;;;;9.40;100.00;101972.66;5015399;28;20445;-75
2021/10/26 05:56:42;;;;;;;44.35;17.88;;;;;;;9.35;100.00;101963.72;5013353;28;20100;-76
2021/10/26 05:59:08;;;;;;;39.38;19.08;;;;;;;9.37;100.00;101960.31;5013708;28;20116;-75
2021/10/26 06:01:33;;;;;;;48.63;17.42;;;;;;;9.37;100.00;101960.31;5013129;28;20026;-76
2021/10/26 06:04:01;;;;;;;52.83;17.75;;;;;;;9.34;100.00;101954.03;5014069;28;20034;-76
2021/10/26 06:06:27;;;;;;;41.58;18.08;;;;;;;9.33;100.00;101952.22;5013741;28;20030;-75
2021/10/26 06:08:52;;;;;;;47.65;17.25;;;;;;;9.31;100.00;101944.28;5013491;28;20093;-77
2021/10/26 06:11:21;;;;;;;35.85;17.65;;;;;;;9.29;100.00;101956.47;5009801;28;20073;-76
2021/10/26 06:13:52;;;;;;;47.60;18.50;;;;;;;9.28;100.00;101952.94;5012492;28;20075;-77
2021/10/26 06:16:17;;;;;;;46.13;18.10;;;;;;;9.32;100.00;101961.84;5011883;28;20030;-77
2021/10/26 06:18:42;;;;;;;58.97;18.90;;;;;;;9.31;100.00;101953.91;5010825;28;20718;-77
2021/10/26 06:21:08;;;;;;;42.55;17.63;;;;;;;9.32;100.00;101955.69;5018573;28;20036;-76
2021/10/26 06:23:34;;;;;;;35.80;16.83;;;;;;;9.30;100.00;101958.25;5010904;28;20030;-77
2021/10/26 06:25:59;;;;;;;49.40;17.45;;;;;;;9.28;100.00;101962.56;5012205;28;20089;-77
2021/10/26 06:28:25;;;;;;;41.75;15.57;;;;;;;9.28;100.00;101973.06;5015877;28;20041;-76
2021/10/26 06:30:51;;;;;;;42.28;17.30;;;;;;;9.28;100.00;101975.69;5014202;28;20152;-76
2021/10/26 06:33:16;;;;;;;42.08;15.45;;;;;;;9.27;100.00;101973.91;5013600;28;20033;-79
2021/10/26 06:35:41;;;;;;;42.75;16.42;;;;;;;9.26;100.00;101972.09;5014077;28;20024;-77
2021/10/26 06:38:07;;;;;;;34.28;16.13;;;;;;;9.26;100.00;101977.34;5012234;28;20088;-78
2021/10/26 06:40:32;;;;;;;44.40;14.20;;;;;;;9.27;100.00;101980.03;5010010;28;22681;-75
2021/10/26 06:42:58;;;;;;;35.45;14.88;;;;;;;9.28;100.00;101991.47;5012187;28;20116;-76
2021/10/26 06:45:24;;;;;;;38.10;14.02;;;;;;;9.30;100.00;101995.03;5012852;28;20026;-75
2021/10/26 06:47:50;;;;;;;38.83;14.20;;;;;;;9.29;100.00;101987.97;5013587;28;20021;-76
2021/10/26 06:50:15;;;;;;;29.77;13.18;;;;;;;9.29;100.00;101977.47;5014685;28;20501;-78
2021/10/26 06:52:41;;;;;;;36.03;15.27;;;;;;;9.32;100.00;101982.88;5013989;28;20506;-78
2021/10/26 06:55:07;;;;;;;33.53;14.65;;;;;;;9.33;100.00;101984.63;5011376;28;20029;-79
2021/10/26 06:57:33;;;;;;;41.33;13.55;;;;;;;9.38;100.00;101990.09;5021560;28;20045;-77
2021/10/26 06:59:59;;;;;;;43.97;14.45;;;;;;;9.39;100.00;101991.91;5012675;28;20030;-77
2021/10/26 07:02:25;;;;;;;39.90;14.20;;;;;;;9.41;100.00;101992.84;5011103;28;20029;-77
2021/10/26 07:04:50;;;;;;;35.20;15.57;;;;;;;9.42;100.00;101992.88;5010630;28;20032;-77
2021/10/26 07:07:15;;;;;;;34.53;14.57;;;;;;;9.48;100.00;101993.97;5012276;28;20108;-76
2021/10/26 07:09:41;;;;;;;39.47;14.73;;;;;;;9.53;100.00;101993.31;5010851;28;20420;-77
2021/10/26 07:12:06;;;;;;;31.88;14.82;;;;;;;9.56;100.00;101992.53;5012790;28;20554;-76
2021/10/26 07:14:32;;;;;;;36.85;15.30;;;;;;;9.62;100.00;101998.06;5013429;28;20041;-79
2021/10/26 07:16:57;;;;;;;40.67;13.82;;;;;;;9.68;100.00;101995.66;5012880;28;20034;-77
2021/10/26 07:19:23;;;;;;;28.25;13.77;;;;;;;9.73;100.00;101996.72;5012916;28;20022;-77
2021/10/26 07:21:49;;;;;;;37.53;15.35;;;;;;;9.77;100.00;101998.63;5012827;28;20041;-78
2021/10/26 07:24:14;;;;;;;29.75;14.30;;;;;;;9.83;100.00;102008.47;5016535;28;20037;-78
2021/10/26 07:26:40;;;;;;;34.22;13.73;;;;;;;9.85;100.00;102006.81;5020297;28;20100;-77
2021/10/26 07:29:05;;;;;;;34.25;14.43;;;;;;;9.92;100.00;102014.09;5004852;28;20022;-78
2021/10/26 07:31:31;;;;;;;33.83;13.43;;;;;;;10.00;100.00;102022.28;5011680;28;20488;-78
2021/10/26 07:33:58;;;;;;;36.53;13.43;;;;;;;10.07;100.00;102021.66;5012660;28;20382;-78
2021/10/26 07:36:31;;;;;;;31.27;14.18;;;;;;;10.12;100.00;102029.75;4995162;28;20117;-78
2021/10/26 07:39:00;;;;;;;27.17;13.15;;;;;;;10.20;100.00;102019.50;5013368;28;20092;-78
2021/10/26 07:41:26;;;;;;;32.42;13.80;;;;;;;10.22;100.00;102012.56;5013211;28;20121;-79
2021/10/26 07:43:51;;;;;;;29.45;12.02;;;;;;;10.24;100.00;102021.41;5011102;28;20040;-78
2021/10/26 07:46:17;;;;;;;25.50;12.73;;;;;;;10.27;100.00;102024.16;5011835;28;20042;-77
2021/10/26 07:48:42;;;;;;;30.48;13.80;;;;;;;10.26;100.00;102032.88;5013659;28;20084;-78
2021/10/26 07:51:07;;;;;;;28.08;12.60;;;;;;;10.34;100.00;102026.16;5016058;28;20427;-80
2021/10/26 07:53:33;;;;;;;24.60;13.45;;;;;;;10.32;100.00;102025.22;5020428;28;20042;-78
2021/10/26 07:56:03;;;;;;;27.77;12.20;;;;;;;10.37;100.00;102033.31;5016921;28;20041;-78
2021/10/26 07:58:29;;;;;;;22.88;13.15;;;;;;;10.37;100.00;102023.69;5014570;28;20068;-80
2021/10/26 08:00:54;;;;;;;30.30;13.48;;;;;;;10.41;100.00;102022.94;5024058;28;20521;-79
2021/10/26 08:03:21;;;;;;;25.25;12.68;;;;;;;10.43;100.00;102021.28;5016263;28;20041;-80
2021/10/26 08:05:47;;;;;;;27.17;13.10;;;;;;;10.45;100.00;102016.94;5016370;28;20032;-80
2021/10/26 08:08:12;;;;;;;29.70;13.55;;;;;;;10.50;100.00;102019.78;5018631;28;20456;-80
2021/10/26 08:10:38;;;;;;;30.35;12.43;;;;;;;10.54;100.00;102013.78;5016497;28;20029;-80
2021/10/26 08:13:03;;;;;;;27.67;12.85;;;;;;;10.59;100.00;102022.72;5015333;28;20093;-80
2021/10/26 08:15:29;;;;;;;22.88;11.93;;;;;;;10.66;100.00;102031.72;5017337;28;20038;-78
2021/10/26 08:17:55;;;;;;;32.50;12.55;;;;;;;10.71;100.00;102035.41;5016079;28;20037;-80
2021/10/26 08:20:20;;;;;;;27.67;12.25;;;;;;;10.71;100.00;102035.41;5015838;28;20072;-79
2021/10/26 08:22:46;;;;;;;23.95;11.52;;;;;;;10.78;100.00;102037.44;5016041;28;20030;-79
2021/10/26 08:25:21;;;;;;;32.55;12.93;;;;;;;10.86;100.00;102027.16;5015529;28;20053;-79
2021/10/26 08:27:52;;;;;;;29.23;11.30;;;;;;;10.98;100.00;102025.78;5015077;28;20045;-80
2021/10/26 08:30:30;;;;;;;22.33;11.55;;;;;;;11.00;100.00;102027.66;5015549;28;20029;-79
2021/10/26 08:33:16;;;;;;;21.08;10.77;;;;;;;11.07;100.00;102028.72;5016651;28;20088;-80
2021/10/26 08:35:42;;;;;;;28.50;11.85;;;;;;;11.13;100.00;102028.94;5015048;28;20080;-78
2021/10/26 08:38:08;;;;;;;20.27;10.20;;;;;;;11.17;100.00;102028.19;5016025;28;20037;-79
2021/10/26 08:40:36;;;;;;;22.65;9.85;;;;;;;11.18;100.00;102024.72;5015615;28;20026;-80
2021/10/26 08:43:05;;;;;;;27.45;10.75;;;;;;;11.23;100.00;102027.50;5015693;28;20069;-78
2021/10/26 08:45:33;;;;;;;24.95;8.93;;;;;;;11.28;100.00;102028.53;5014235;28;20052;-79
2021/10/26 08:48:02;;;;;;;20.65;10.13;;;;;;;11.34;100.00;102018.22;5016142;28;20076;-80
2021/10/26 08:50:32;;;;;;;27.45;10.02;;;;;;;11.39;100.00;102016.59;5015338;28;20018;-80
2021/10/26 08:52:58;;;;;;;24.00;10.35;;;;;;;11.41;100.00;102009.66;5020061;28;20496;-80
2021/10/26 08:55:23;;;;;;;20.27;9.55;;;;;;;11.43;100.00;102010.56;5015807;28;20017;-79
2021/10/26 08:57:49;;;;;;;24.83;9.98;;;;;;;11.43;100.00;102018.50;5015236;28;20096;-79
2021/10/26 09:00:17;;;;;;;19.27;9.82;;;;;;;11.47;100.00;102009.81;5014694;28;20030;-78
2021/10/26 09:02:46;;;;;;;20.13;9.43;;;;;;;11.48;100.00;102022.16;5013192;28;20452;-79
2021/10/26 09:05:18;;;;;;;23.30;9.75;;;;;;;11.56;100.00;102026.81;5014519;28;20466;-78
2021/10/26 09:08:02;;;;;;;17.48;9.20;;;;;;;11.57;100.00;102018.94;5006861;28;20367;-79
2021/10/26 09:10:29;;;;;;;;;;;;;;;11.60;100.00;102020.78;5013265;28;20036;-79
2021/10/26 09:18:42;;;;;;;16.90;9.25;;;;;;;11.72;100.00;102005.34;5014445;28;20065;-76
2021/10/26 09:21:37;;;;;;;21.33;9.65;;;;;;;11.76;100.00;102014.22;5014921;28;20026;-78
2021/10/26 09:24:08;;;;;;;22.40;9.85;;;;;;;11.80;100.00;102014.38;5004822;28;20456;-80
2021/10/26 09:26:46;;;;;;;26.90;10.30;;;;;;;11.84;100.00;102019.75;5014160;28;20042;-79
2021/10/26 09:29:12;;;;;;;24.38;10.05;;;;;;;11.81;100.00;102028.44;5015119;28;20038;-80
2021/10/26 09:31:39;;;;;;;19.67;9.77;;;;;;;11.72;100.00;102031.72;5014371;28;20052;-80
2021/10/26 09:34:07;;;;;;;19.70;10.00;;;;;;;11.73;100.00;102044.03;5013725;28;20030;-81
2021/10/26 09:36:37;;;;;;;16.83;9.38;;;;;;;11.71;100.00;102045.75;5020278;28;20025;-77
2021/10/26 09:39:11;;;;;;;24.88;10.70;;;;;;;11.66;100.00;102042.06;5012875;28;20042;-78
2021/10/26 09:41:52;;;;;;;24.25;10.85;;;;;;;11.67;100.00;102042.97;5013672;28;20034;-78
2021/10/26 09:44:23;;;;;;;30.45;12.70;;;;;;;11.63;100.00;102042.84;5015073;28;20032;-78
2021/10/26 09:46:50;;;;;;;24.10;12.43;;;;;;;11.56;100.00;102037.34;5013938;28;20037;-78
2021/10/26 09:49:34;;;;;;;27.23;12.75;;;;;;;11.61;100.00;102038.38;5013822;28;20032;-79
2021/10/26 09:52:15;;;;;;;26.02;12.68;;;;;;;11.57;100.00;102026.84;5014809;28;20429;-78
2021/10/26 09:54:42;;;;;;;27.50;13.00;;;;;;;11.57;100.00;102036.47;5013361;28;20033;-78
2021/10/26 09:57:13;;;;;;;23.00;13.48;;;;;;;11.53;100.00;102029.31;5014043;28;20036;-78
2021/10/26 09:59:54;;;;;;;26.27;13.48;;;;;;;11.52;100.00;102025.81;5012848;28;20041;-78
2021/10/26 10:02:22;;;;;;;22.95;14.63;;;;;;;11.52;100.00;102032.84;5014414;28;20034;-78
2021/10/26 10:04:50;;;;;;;23.85;14.60;;;;;;;11.57;100.00;102028.56;5014175;28;20032;-78
2021/10/26 10:07:27;;;;;;;28.48;13.88;;;;;;;11.62;100.00;102024.34;5014437;28;20113;-78
2021/10/26 10:09:59;;;;;;;20.45;12.32;;;;;;;11.69;100.00;102018.41;5014410;28;20030;-77
2021/10/26 10:12:26;;;;;;;23.83;11.48;;;;;;;11.76;100.00;102017.78;5014156;28;20046;-77
2021/10/26 10:14:53;;;;;;;21.23;11.90;;;;;;;11.85;100.00;102008.34;5015208;28;21797;-78
2021/10/26 10:17:21;;;;;;;24.80;11.18;;;;;;;11.93;100.00;102001.56;5019553;28;20466;-80
2021/10/26 10:19:52;;;;;;;20.13;11.15;;;;;;;12.05;100.00;101999.31;5023512;28;20037;-78
2021/10/26 10:22:25;;;;;;;23.58;11.35;;;;;;;12.21;100.00;102011.22;5013611;28;20095;-79
2021/10/26 10:24:54;;;;;;;;;;;;;;;12.48;100.00;102005.81;5015224;28;20034;-79
2021/10/26 10:27:20;;;;;;;16.25;8.90;;;;;;;12.85;100.00;102007.66;5016232;28;20276;-78
2021/10/26 10:29:47;;;;;;;12.68;7.82;;;;;;;13.01;100.00;102007.19;5010817;28;20037;-78
2021/10/26 10:32:13;;;;;;;17.75;8.35;;;;;;;13.08;100.00;102003.84;5014707;28;20067;-79
2021/10/26 10:34:39;;;;;;;15.98;7.85;;;;;;;12.98;100.00;101999.16;5014311;28;20042;-79
2021/10/26 10:37:05;;;;;;;18.42;8.48;;;;;;;12.98;100.00;102004.44;5013991;28;20029;-80
2021/10/26 10:39:34;;;;;;;14.63;7.45;;;;;;;12.96;100.00;102011.44;5014851;28;20125;-80
2021/10/26 10:42:12;;;;;;;16.17;8.00;;;;;;;13.00;100.00;102005.38;5012696;28;20026;-78
2021/10/26 10:44:39;;;;;;;14.82;9.07;;;;;;;13.03;100.00;102001.94;5013201;28;20036;-79
2021/10/26 10:47:10;;;;;;;25.65;9.65;;;;;;;13.04;100.00;102001.09;5015062;28;20037;-79
2021/10/26 10:49:35;;;;;;;16.50;8.65;;;;;;;13.07;99.46;101993.22;5013166;28;20421;-76
2021/10/26 10:52:10;;;;;;;18.13;8.90;;;;;;;13.04;98.84;101991.41;5012902;28;20087;-73
2021/10/26 10:54:36;;;;;;;16.38;8.05;;;;;;;12.93;99.67;101993.78;5016072;28;20030;-74
2021/10/26 10:57:36;;;;;;;15.48;8.85;;;;;;;13.05;100.00;101993.19;5013323;28;20492;-74
2021/10/26 11:00:15;;;;;;;16.33;8.07;;;;;;;13.37;99.36;102002.78;5012807;28;20101;-76
2021/10/26 11:02:41;;;;;;;16.38;7.63;;;;;;;13.58;97.27;101999.72;5011979;28;20470;-76
2021/10/26 11:05:06;;;;;;;18.20;8.60;;;;;;;13.71;96.59;102003.56;5013203;28;20034;-74
2021/10/26 11:07:43;;;;;;;18.95;7.82;;;;;;;13.76;95.65;101993.97;5011695;28;20026;-74
2021/10/26 11:10:10;;;;;;;18.15;6.72;;;;;;;13.71;94.35;101991.22;5012921;28;20037;-75
2021/10/26 11:12:37;;;;;;;17.50;7.00;;;;;;;13.60;95.55;101995.38;5012729;28;20037;-75
2021/10/26 11:15:06;;;;;;;10.32;6.00;;;;;;;13.45;96.10;101998.56;5012004;28;20501;-75